Kandahar Airport
OAKN : now visible

Airfield :











YOU CAN JOIN US ON...

 
LOGIN :

Register | Disclaimer

   EN    FR    IT 

 









Legend :    VFR   Marginal VFR   IFR   Intensive IFR   Very Intensive IFR
Visi :
Ceiling :
>= 8 km
>= 3000ft
5 to 8 km
1000 to 3000 ft
1500m to 5 km
500 to 1000 ft
800 to 1500m
200 to 500 ft
< 800m
< 200 ft
Symbols :   Thunderstorms  Fog  Heavy snow  Heavy precipitations  Wind > 20 kt






- Airport Elevation : 3337 ft
- IATA code : KDH


OAKN - Kandahar

CURRENT METAR :
  • 011356Z 26006KT 9999 CLR 18/M02 A3006 RMK AO2A SLP149 WND DATA ESTMD T01801022

EXPIRED METARs :
  • 011256Z 26009G15KT 9999 FEW120 21/M03 A3005 RMK AO2A SLP141 WND DATA ESTMD T02051031
  • 011156Z 27013G18KT 9999 FEW120 22/M07 A3004 RMK AO2A SLP136 WND DATA ESTMD T02191066 10232 20192 57009

TAF TAF OAKN
Valid from the 01 at 07:00 until the 02 at 13:00 UTC


010700Z 0107/0213 23006KT 9999 SCT120 QNH3009INS
BECMG 0108/0109 27012G18KT 9999 SKC QNH3006INS
BECMG 0113/0114 VRB06KT 9999 SKC QNH3007INS
BECMG 0207/0208 23006KT 9999 FEW250 QNH3004INS TX22/0110Z TN09/0201Z



MET'MAP, your aeronautical weather chart ! - Copyright ORBIFLY December 2007 - Disclaimer

ORBIFLY MET'MAP TEAM :

Programming & Development : Alexandra Zaïnal
Concept & original design : Baudouin d'Aumeries
Assistance for programming : Marc-Olivier Méhu
Technical & hardware support : Manuel Goepfert

Contact : metmap@orbifly.com




SOURCES & CREDITS :

   NOAA       Earth
Advisory